Time;durP1;ratioP1;P1;durP2;ratioP2;P2;SDS_P1;SDS_P2;PMS_P1;PMS_P2;Temp;Humidity;BMP_temperature;BMP_pressure;BME280_temperature;BME280_humidity;BME280_pressure;Samples;Min_cycle;Max_cycle;Signal;HPM_P1;HPM_P2
2021/12/02 00:02:23;;;;;;;1.30;1.08;;;8.60;95.00;;;;;;4987359;28;20129;-89
2021/12/02 00:04:53;;;;;;;3.08;1.10;;;8.50;94.90;;;;;;4949186;28;20401;-89
2021/12/02 00:07:19;;;;;;;2.13;0.85;;;8.50;94.90;;;;;;4951921;28;20037;-89
2021/12/02 00:09:46;;;;;;;1.88;0.95;;;8.50;94.80;;;;;;4993862;28;20031;-89
2021/12/02 00:12:12;;;;;;;2.28;1.10;;;8.40;94.70;;;;;;4969411;28;20347;-89
2021/12/02 00:14:44;;;;;;;1.77;0.95;;;8.40;94.60;;;;;;4956824;28;20501;-89
2021/12/02 00:17:18;;;;;;;2.17;0.90;;;8.40;94.60;;;;;;4969973;28;20734;-89
2021/12/02 00:22:35;;;;;;;2.00;1.23;;;8.30;94.40;;;;;;4964803;28;20534;-89
2021/12/02 00:25:05;;;;;;;2.20;1.60;;;8.20;94.20;;;;;;4976263;28;20294;-89
2021/12/02 00:27:34;;;;;;;4.72;1.52;;;8.20;94.10;;;;;;4979994;28;20033;-89
2021/12/02 00:30:02;;;;;;;2.08;1.63;;;8.20;94.00;;;;;;4966876;28;20530;-89
2021/12/02 00:32:31;;;;;;;3.35;1.42;;;8.10;94.00;;;;;;4979669;28;20030;-89
2021/12/02 00:34:57;;;;;;;2.85;1.75;;;8.00;94.00;;;;;;4956772;28;20221;-89
2021/12/02 00:37:27;;;;;;;2.30;1.42;;;8.00;94.20;;;;;;4980433;28;20606;-89
2021/12/02 00:39:54;;;;;;;2.08;1.42;;;8.00;94.50;;;;;;4989922;28;20116;-89
2021/12/02 00:42:21;;;;;;;2.00;1.48;;;7.90;94.80;;;;;;4994655;28;20117;-87
2021/12/02 00:44:46;;;;;;;1.58;1.23;;;7.90;94.90;;;;;;4962634;28;20034;-88
2021/12/02 00:47:14;;;;;;;2.42;0.98;;;7.90;95.00;;;;;;4973552;28;20065;-88
2021/12/02 00:49:40;;;;;;;1.42;0.95;;;8.00;95.20;;;;;;4986623;28;20085;-89
2021/12/02 00:52:07;;;;;;;2.22;0.98;;;8.00;95.30;;;;;;4956736;28;20752;-88
2021/12/02 00:54:39;;;;;;;2.10;0.90;;;8.00;95.30;;;;;;4985034;28;20033;-89
2021/12/02 00:57:06;;;;;;;2.35;1.02;;;8.00;95.50;;;;;;4977481;28;20271;-88
2021/12/02 00:59:33;;;;;;;1.55;0.77;;;8.00;95.40;;;;;;4966066;28;20389;-88
2021/12/02 01:02:00;;;;;;;2.03;0.80;;;8.00;95.40;;;;;;4971683;28;20370;-89
2021/12/02 01:04:26;;;;;;;0.90;0.70;;;8.00;95.40;;;;;;4976179;28;20039;-87
2021/12/02 01:06:53;;;;;;;2.30;0.60;;;8.10;95.30;;;;;;4969470;28;20041;-87
2021/12/02 01:09:19;;;;;;;3.92;0.77;;;8.10;95.20;;;;;;4963625;28;20023;-88
2021/12/02 01:11:45;;;;;;;1.65;0.60;;;8.00;95.40;;;;;;4991129;28;20487;-89
2021/12/02 01:14:12;;;;;;;1.77;0.70;;;8.10;95.00;;;;;;4978278;28;20124;-88
2021/12/02 01:16:38;;;;;;;1.38;0.70;;;8.00;94.70;;;;;;4981388;28;20034;-89
2021/12/02 01:19:05;;;;;;;1.90;0.93;;;8.00;94.50;;;;;;4992485;28;20034;-89
2021/12/02 01:21:40;;;;;;;3.20;1.10;;;8.00;94.30;;;;;;4982904;28;20034;-89
2021/12/02 01:24:09;;;;;;;1.70;0.80;;;7.90;94.20;;;;;;4979987;28;20045;-88
2021/12/02 01:26:38;;;;;;;1.65;0.85;;;7.90;94.20;;;;;;4991010;28;20042;-89
2021/12/02 01:29:09;;;;;;;2.05;0.70;;;7.80;94.20;;;;;;4979464;28;20113;-89
2021/12/02 01:31:38;;;;;;;1.20;0.75;;;7.80;94.10;;;;;;4975219;28;20101;-88
2021/12/02 01:34:08;;;;;;;1.83;0.70;;;7.70;94.10;;;;;;4991361;28;20034;-89
2021/12/02 01:36:40;;;;;;;0.98;0.60;;;7.70;94.10;;;;;;4983746;28;20487;-89
2021/12/02 01:39:09;;;;;;;0.70;0.70;;;7.70;94.10;;;;;;4973780;28;20108;-87
2021/12/02 01:41:42;;;;;;;1.77;0.60;;;7.60;94.10;;;;;;4975780;28;20598;-89
2021/12/02 01:44:11;;;;;;;0.85;0.60;;;7.60;94.00;;;;;;4968518;28;20088;-89
2021/12/02 01:46:39;;;;;;;1.20;0.60;;;7.50;93.90;;;;;;4968518;28;20034;-89
2021/12/02 01:49:05;;;;;;;0.50;0.40;;;7.50;93.80;;;;;;4984710;28;20023;-88
2021/12/02 01:51:44;;;;;;;1.15;0.60;;;7.40;93.60;;;;;;4986546;28;20562;-88
2021/12/02 01:54:16;;;;;;;1.15;0.50;;;7.40;93.60;;;;;;4981322;28;20072;-88
2021/12/02 01:56:43;;;;;;;2.17;0.80;;;7.40;93.70;;;;;;4977955;28;20034;-89
2021/12/02 01:59:21;;;;;;;1.85;0.85;;;7.30;93.80;;;;;;4978877;28;20042;-88
2021/12/02 02:01:56;;;;;;;1.40;0.60;;;7.20;93.90;;;;;;4957378;28;20173;-88
2021/12/02 02:04:23;;;;;;;3.10;0.70;;;7.20;94.10;;;;;;4979030;28;20395;-87
2021/12/02 02:07:03;;;;;;;2.70;0.90;;;7.20;94.30;;;;;;4989382;28;20192;-90
2021/12/02 02:09:32;;;;;;;2.97;0.90;;;7.20;94.40;;;;;;4953082;28;20027;-90
2021/12/02 02:12:00;;;;;;;2.90;1.20;;;7.20;94.50;;;;;;4974132;28;20264;-90
2021/12/02 02:14:27;;;;;;;1.40;0.70;;;7.20;94.70;;;;;;4979129;28;20386;-89
2021/12/02 02:16:54;;;;;;;1.40;0.80;;;7.20;94.80;;;;;;4969034;28;20343;-88
2021/12/02 02:19:20;;;;;;;1.80;0.80;;;7.20;95.00;;;;;;4984491;28;20037;-88
2021/12/02 02:21:46;;;;;;;1.38;0.60;;;7.20;95.10;;;;;;4967996;28;20034;-88
2021/12/02 02:24:14;;;;;;;1.88;0.82;;;7.20;95.20;;;;;;4963242;28;20031;-90
2021/12/02 02:26:41;;;;;;;1.33;0.80;;;7.30;95.40;;;;;;4971961;28;20094;-90
2021/12/02 02:29:10;;;;;;;1.27;0.85;;;7.30;95.40;;;;;;4995468;28;20023;-90
2021/12/02 02:31:39;;;;;;;0.73;0.57;;;7.40;95.20;;;;;;4979561;28;20038;-90
2021/12/02 02:34:05;;;;;;;1.73;0.60;;;7.40;95.00;;;;;;4974733;28;20061;-90
2021/12/02 02:36:37;;;;;;;1.90;0.75;;;7.40;94.80;;;;;;4973950;28;20034;-90
2021/12/02 02:39:03;;;;;;;2.33;0.85;;;7.40;94.70;;;;;;4997263;28;20026;-89
2021/12/02 02:41:34;;;;;;;1.75;0.60;;;7.40;94.90;;;;;;4980838;28;20151;-90
2021/12/02 02:44:00;;;;;;;0.77;0.60;;;7.40;95.00;;;;;;4980846;28;20034;-90
2021/12/02 02:46:35;;;;;;;4.55;0.68;;;7.40;95.00;;;;;;4980474;28;20046;-88
2021/12/02 02:49:03;;;;;;;1.45;0.60;;;7.40;95.00;;;;;;4983351;28;20251;-90
2021/12/02 02:51:31;;;;;;;0.98;0.50;;;7.40;94.90;;;;;;4972902;28;20023;-89
2021/12/02 02:54:03;;;;;;;0.40;0.40;;;7.40;94.60;;;;;;4995602;28;20331;-89
2021/12/02 02:56:30;;;;;;;3.10;0.63;;;7.40;94.40;;;;;;4980610;28;20038;-90
2021/12/02 02:59:13;;;;;;;1.88;0.60;;;7.30;94.20;;;;;;4981659;28;20061;-89
2021/12/02 03:04:32;;;;;;;1.75;0.50;;;7.30;93.90;;;;;;4980340;28;20038;-89
2021/12/02 03:07:09;;;;;;;2.67;0.82;;;7.20;93.90;;;;;;4966506;28;20093;-89
2021/12/02 03:12:08;;;;;;;1.67;0.60;;;7.10;94.20;;;;;;4968134;28;20034;-88
2021/12/02 03:14:53;;;;;;;1.25;0.65;;;7.10;94.30;;;;;;4970431;28;20132;-89
2021/12/02 03:17:18;;;;;;;1.50;0.70;;;7.10;94.40;;;;;;4981828;28;20497;-90
2021/12/02 03:19:45;;;;;;;3.30;0.73;;;7.00;94.40;;;;;;4979401;28;20109;-90
2021/12/02 03:22:13;;;;;;;1.58;0.60;;;7.00;94.50;;;;;;4985509;28;20073;-89
2021/12/02 03:24:39;;;;;;;3.03;0.80;;;7.00;94.40;;;;;;4981725;28;20038;-90
2021/12/02 03:27:05;;;;;;;1.83;0.70;;;7.00;94.50;;;;;;4962303;28;20495;-90
2021/12/02 03:29:31;;;;;;;3.17;0.98;;;7.00;94.70;;;;;;4971521;28;20543;-89
2021/12/02 03:31:57;;;;;;;3.38;1.10;;;7.00;94.90;;;;;;4996671;28;20042;-89
2021/12/02 03:34:23;;;;;;;3.30;1.10;;;7.00;95.00;;;;;;4975673;28;20030;-89
2021/12/02 03:36:54;;;;;;;1.98;0.70;;;7.10;95.10;;;;;;4958840;28;20047;-90
2021/12/02 03:39:20;;;;;;;1.77;0.70;;;7.10;95.10;;;;;;4975410;28;20213;-90
2021/12/02 03:41:46;;;;;;;0.75;0.60;;;7.10;95.20;;;;;;4987609;28;20042;-90
2021/12/02 03:44:12;;;;;;;0.63;0.50;;;7.20;95.20;;;;;;4978886;28;20105;-89
2021/12/02 03:46:40;;;;;;;0.50;0.50;;;7.10;95.20;;;;;;4981229;28;20391;-90
2021/12/02 03:49:06;;;;;;;2.38;0.45;;;7.20;95.10;;;;;;4979694;28;20026;-89
2021/12/02 03:51:32;;;;;;;0.50;0.40;;;7.20;95.10;;;;;;4969961;28;20740;-89
2021/12/02 03:53:59;;;;;;;0.40;0.30;;;7.20;94.90;;;;;;4971874;28;20038;-89
2021/12/02 03:56:25;;;;;;;1.10;0.40;;;7.20;94.80;;;;;;4992381;28;20639;-90
2021/12/02 03:58:52;;;;;;;0.55;0.30;;;7.20;94.60;;;;;;4965822;28;20505;-90
2021/12/02 04:01:19;;;;;;;0.90;0.43;;;7.10;94.40;;;;;;4978657;28;20687;-90
2021/12/02 04:03:45;;;;;;;1.75;0.50;;;7.10;94.30;;;;;;4972421;28;20046;-90
2021/12/02 04:06:12;;;;;;;0.40;0.30;;;7.10;94.10;;;;;;4992633;28;20491;-90
2021/12/02 04:08:45;;;;;;;0.30;0.30;;;7.00;93.90;;;;;;4986761;28;20027;-90
2021/12/02 04:13:54;;;;;;;0.35;0.35;;;6.90;94.00;;;;;;4959013;28;20498;-89
2021/12/02 04:16:21;;;;;;;0.55;0.38;;;6.90;94.10;;;;;;4976536;28;20086;-90
2021/12/02 04:18:47;;;;;;;0.75;0.45;;;6.90;94.30;;;;;;4979937;28;20038;-90
2021/12/02 04:21:13;;;;;;;1.05;0.20;;;6.90;94.50;;;;;;4983944;28;20042;-89
2021/12/02 04:23:38;;;;;;;1.05;0.55;;;6.90;94.60;;;;;;4969521;28;20084;-90
2021/12/02 04:26:05;;;;;;;2.25;0.30;;;6.90;94.60;;;;;;4977940;28;20057;-91
2021/12/02 04:28:31;;;;;;;0.30;0.30;;;6.90;94.70;;;;;;4978236;28;20243;-90
2021/12/02 04:30:57;;;;;;;1.40;0.35;;;6.90;94.70;;;;;;4956804;28;20027;-90
2021/12/02 04:33:23;;;;;;;0.30;0.30;;;7.00;94.70;;;;;;4979764;28;20498;-90
2021/12/02 04:35:48;;;;;;;1.38;0.65;;;6.90;94.60;;;;;;4980265;28;20022;-90
2021/12/02 04:38:14;;;;;;;0.43;0.38;;;6.90;94.40;;;;;;4968304;28;20052;-91
2021/12/02 04:40:41;;;;;;;0.30;0.30;;;6.90;94.50;;;;;;4971464;28;20097;-90
2021/12/02 04:43:08;;;;;;;0.55;0.30;;;6.90;94.50;;;;;;4990096;28;20038;-88
2021/12/02 04:45:34;;;;;;;2.13;0.50;;;6.90;94.60;;;;;;4967420;28;21062;-87
2021/12/02 04:48:00;;;;;;;0.40;0.32;;;6.90;94.60;;;;;;4971588;28;20033;-90
2021/12/02 04:50:25;;;;;;;1.02;0.40;;;6.90;94.50;;;;;;4977493;28;20527;-89
2021/12/02 04:52:52;;;;;;;0.95;0.50;;;6.80;94.50;;;;;;4980944;28;20061;-88
2021/12/02 04:55:19;;;;;;;1.50;0.50;;;6.80;94.30;;;;;;4959440;28;20035;-91
2021/12/02 04:57:46;;;;;;;1.05;0.50;;;6.80;94.20;;;;;;4978735;28;20038;-90
2021/12/02 05:00:12;;;;;;;0.77;0.50;;;6.80;94.10;;;;;;4972464;28;20251;-90
2021/12/02 05:02:40;;;;;;;2.97;0.60;;;6.70;94.00;;;;;;4968228;28;20058;-90
2021/12/02 05:05:07;;;;;;;1.80;0.50;;;6.70;93.90;;;;;;4992536;28;20530;-88
2021/12/02 05:07:33;;;;;;;1.92;0.70;;;6.60;93.80;;;;;;4975136;28;20144;-88
2021/12/02 05:09:59;;;;;;;2.75;0.80;;;6.60;94.00;;;;;;4969560;28;20037;-90
2021/12/02 05:12:24;;;;;;;2.50;0.90;;;6.50;94.10;;;;;;4992743;28;20246;-90
2021/12/02 05:14:50;;;;;;;1.75;1.00;;;6.50;94.20;;;;;;4990894;28;20040;-90
2021/12/02 05:17:16;;;;;;;2.00;1.27;;;6.60;94.30;;;;;;4961480;28;20030;-89
2021/12/02 05:19:41;;;;;;;4.53;1.30;;;6.50;94.30;;;;;;4979761;28;20038;-90
2021/12/02 05:22:08;;;;;;;2.75;1.52;;;6.50;94.40;;;;;;4968709;28;21240;-90
2021/12/02 05:24:34;;;;;;;2.95;1.00;;;6.50;94.40;;;;;;4978775;28;20030;-88
2021/12/02 05:26:59;;;;;;;3.03;1.38;;;6.50;94.40;;;;;;4978429;28;20397;-89
2021/12/02 05:29:25;;;;;;;1.92;1.40;;;6.50;94.40;;;;;;4975487;28;20053;-89
2021/12/02 05:31:51;;;;;;;4.50;1.50;;;6.50;94.40;;;;;;4971405;28;20522;-89
2021/12/02 05:34:17;;;;;;;1.75;1.25;;;6.50;94.50;;;;;;4966231;28;20291;-90
2021/12/02 05:36:42;;;;;;;2.13;1.20;;;6.40;94.60;;;;;;4975622;28;20491;-90
2021/12/02 05:39:08;;;;;;;3.28;1.42;;;6.40;94.60;;;;;;4967672;28;20079;-91
2021/12/02 05:41:34;;;;;;;3.75;1.35;;;6.40;94.70;;;;;;4965329;28;20026;-89
2021/12/02 05:44:00;;;;;;;1.90;1.00;;;6.50;94.70;;;;;;4974566;28;20495;-90
2021/12/02 05:46:27;;;;;;;1.48;1.10;;;6.50;94.70;;;;;;4982431;28;20250;-90
2021/12/02 05:48:52;;;;;;;1.48;1.00;;;6.50;94.70;;;;;;4979507;28;20637;-90
2021/12/02 05:51:18;;;;;;;1.52;0.88;;;6.50;94.70;;;;;;4971235;28;20133;-89
2021/12/02 05:53:43;;;;;;;1.27;0.80;;;6.50;94.80;;;;;;4992039;28;20036;-89
2021/12/02 05:56:09;;;;;;;3.40;0.88;;;6.50;94.90;;;;;;4983337;28;20056;-89
2021/12/02 05:58:35;;;;;;;2.72;0.75;;;6.50;94.90;;;;;;4985007;28;20391;-89
2021/12/02 06:01:01;;;;;;;0.70;0.50;;;6.50;94.90;;;;;;4989467;28;20037;-90
2021/12/02 06:03:27;;;;;;;0.77;0.40;;;6.50;94.80;;;;;;4951288;28;20046;-89
2021/12/02 06:05:52;;;;;;;1.10;0.40;;;6.50;94.80;;;;;;4981823;28;20041;-89
2021/12/02 06:08:18;;;;;;;0.50;0.50;;;6.50;94.70;;;;;;4985891;28;20113;-88
2021/12/02 06:10:44;;;;;;;0.85;0.50;;;6.50;94.60;;;;;;4959209;28;20624;-90
2021/12/02 06:13:11;;;;;;;0.50;0.40;;;6.50;94.50;;;;;;4984916;28;20072;-89
2021/12/02 06:15:37;;;;;;;0.63;0.50;;;6.50;94.40;;;;;;4976461;28;20430;-90
2021/12/02 06:18:03;;;;;;;0.65;0.55;;;6.50;94.40;;;;;;4964790;28;20132;-89
2021/12/02 06:20:28;;;;;;;1.30;0.50;;;6.50;94.50;;;;;;4975426;28;20030;-90
2021/12/02 06:22:54;;;;;;;1.25;0.60;;;6.50;94.40;;;;;;4980612;28;20779;-91
2021/12/02 06:27:48;;;;;;;1.55;0.50;;;6.40;94.40;;;;;;4968800;28;20424;-89
2021/12/02 06:30:16;;;;;;;1.15;0.50;;;6.40;94.30;;;;;;4980115;28;20031;-90
2021/12/02 06:32:41;;;;;;;1.75;0.90;;;6.40;94.20;;;;;;4990584;28;20049;-91
2021/12/02 06:35:08;;;;;;;1.02;0.50;;;6.30;93.90;;;;;;4968980;28;20343;-91
2021/12/02 06:37:34;;;;;;;0.95;0.55;;;6.30;93.80;;;;;;4981453;28;20046;-89
2021/12/02 06:39:59;;;;;;;0.47;0.47;;;6.30;93.60;;;;;;4974792;28;20123;-89
2021/12/02 06:42:25;;;;;;;1.17;0.50;;;6.20;93.40;;;;;;4966665;28;20038;-88
2021/12/02 06:44:51;;;;;;;3.17;1.05;;;6.10;93.30;;;;;;4969248;28;20175;-89
2021/12/02 06:47:19;;;;;;;2.50;0.77;;;6.10;93.30;;;;;;4969309;28;20045;-90
2021/12/02 06:49:44;;;;;;;2.63;0.63;;;6.00;93.20;;;;;;4957748;28;20037;-89
2021/12/02 06:52:12;;;;;;;1.98;0.55;;;5.90;93.20;;;;;;4976519;28;20019;-90
2021/12/02 06:54:38;;;;;;;2.13;0.50;;;5.90;93.20;;;;;;4968109;28;20035;-90
2021/12/02 06:57:04;;;;;;;1.13;0.70;;;5.90;93.20;;;;;;4957749;28;20242;-90
2021/12/02 06:59:30;;;;;;;1.83;0.50;;;5.80;93.20;;;;;;4967866;28;20035;-91
2021/12/02 07:01:56;;;;;;;2.45;0.55;;;5.80;93.40;;;;;;4996362;28;20164;-90
2021/12/02 07:04:22;;;;;;;0.47;0.47;;;5.70;93.70;;;;;;4979971;28;20045;-88
2021/12/02 07:06:48;;;;;;;0.30;0.30;;;5.70;94.00;;;;;;4970170;28;20084;-90
2021/12/02 07:09:13;;;;;;;5.25;1.00;;;5.80;94.30;;;;;;4977179;28;20031;-90
2021/12/02 07:11:40;;;;;;;3.25;0.70;;;5.70;94.40;;;;;;4961462;28;20030;-90
2021/12/02 07:14:13;;;;;;;0.52;0.50;;;5.70;94.50;;;;;;4960010;28;20031;-90
2021/12/02 07:16:39;;;;;;;1.13;0.75;;;5.80;94.70;;;;;;4978890;28;20288;-88
2021/12/02 07:19:07;;;;;;;2.72;0.88;;;5.80;94.80;;;;;;4969131;28;20030;-90
2021/12/02 07:21:38;;;;;;;2.70;0.98;;;5.80;94.90;;;;;;4963174;28;20587;-88
2021/12/02 07:24:10;;;;;;;1.92;0.70;;;5.80;95.00;;;;;;4971200;28;20049;-90
2021/12/02 07:26:46;;;;;;;0.65;0.60;;;5.80;94.90;;;;;;4980991;28;20038;-91
2021/12/02 07:29:17;;;;;;;0.68;0.68;;;5.80;94.80;;;;;;4971167;28;20034;-89
2021/12/02 07:31:43;;;;;;;0.85;0.80;;;5.80;94.50;;;;;;4970551;28;20399;-90
2021/12/02 07:34:10;;;;;;;1.10;0.60;;;5.80;94.20;;;;;;4974771;28;20050;-88
2021/12/02 07:36:36;;;;;;;1.05;0.75;;;5.80;93.90;;;;;;4956220;28;20550;-90
2021/12/02 07:39:06;;;;;;;0.50;0.40;;;5.70;93.60;;;;;;4984642;28;20034;-89
2021/12/02 07:41:32;;;;;;;0.55;0.52;;;5.70;93.50;;;;;;4980627;28;20039;-89
2021/12/02 07:43:58;;;;;;;0.60;0.60;;;5.60;93.50;;;;;;4951289;28;20062;-89
2021/12/02 07:46:24;;;;;;;0.60;0.60;;;5.60;93.50;;;;;;4978561;28;20607;-89
2021/12/02 07:48:49;;;;;;;1.45;0.80;;;5.50;93.40;;;;;;4974254;28;20038;-90
2021/12/02 07:51:16;;;;;;;0.50;0.50;;;5.50;93.40;;;;;;4975709;28;20086;-90
2021/12/02 07:53:44;;;;;;;0.70;0.70;;;5.40;93.50;;;;;;4970527;28;20038;-89
2021/12/02 07:56:12;;;;;;;0.70;0.50;;;5.40;93.60;;;;;;4975622;28;20038;-89
2021/12/02 07:58:43;;;;;;;1.40;0.63;;;5.30;93.60;;;;;;4952033;28;20041;-90
2021/12/02 08:01:10;;;;;;;0.70;0.70;;;5.30;93.60;;;;;;4968674;28;20086;-90
2021/12/02 08:03:37;;;;;;;1.33;0.60;;;5.30;93.70;;;;;;4993831;28;20042;-90
2021/12/02 08:06:04;;;;;;;0.80;0.60;;;5.20;93.70;;;;;;4974209;28;20235;-91
2021/12/02 08:08:29;;;;;;;0.88;0.60;;;5.20;93.80;;;;;;4962470;28;20434;-91
2021/12/02 08:10:55;;;;;;;0.60;0.60;;;5.20;93.90;;;;;;4983181;28;20232;-91
2021/12/02 08:13:28;;;;;;;2.50;0.70;;;5.20;93.90;;;;;;4996316;28;20094;-91
2021/12/02 08:15:54;;;;;;;0.80;0.80;;;5.20;93.90;;;;;;4955906;28;20113;-92
2021/12/02 08:18:20;;;;;;;1.35;0.80;;;5.20;93.90;;;;;;4978652;28;20088;-91
2021/12/02 08:20:46;;;;;;;2.08;1.23;;;5.20;93.80;;;;;;4985783;28;20537;-90
2021/12/02 08:23:11;;;;;;;0.70;0.70;;;5.20;93.70;;;;;;4955102;28;20069;-90
2021/12/02 08:25:37;;;;;;;1.15;1.00;;;5.20;93.70;;;;;;4984398;28;20367;-91
2021/12/02 08:28:03;;;;;;;1.33;1.10;;;5.10;93.60;;;;;;4973644;28;20365;-91
2021/12/02 08:30:30;;;;;;;1.02;0.98;;;5.10;93.60;;;;;;4956148;28;20069;-91
2021/12/02 08:32:58;;;;;;;0.90;0.90;;;5.10;93.70;;;;;;4984482;28;20030;-91
2021/12/02 08:35:25;;;;;;;0.98;0.90;;;5.00;93.80;;;;;;4977065;28;20392;-91
2021/12/02 08:37:54;;;;;;;1.33;0.90;;;5.00;94.00;;;;;;4970015;28;20026;-90
2021/12/02 08:40:29;;;;;;;0.82;0.80;;;5.00;94.00;;;;;;4963217;28;20046;-91
2021/12/02 08:42:55;;;;;;;1.05;0.95;;;5.00;94.10;;;;;;4968975;28;20034;-88
2021/12/02 08:45:21;;;;;;;1.20;0.90;;;5.00;94.30;;;;;;4972270;28;20403;-90
2021/12/02 08:47:47;;;;;;;3.13;0.98;;;5.00;94.30;;;;;;4959926;28;20651;-91
2021/12/02 08:50:18;;;;;;;1.15;1.05;;;5.10;94.40;;;;;;4993528;28;20073;-90
2021/12/02 08:52:45;;;;;;;0.82;0.82;;;5.10;94.30;;;;;;4975155;28;20038;-89
2021/12/02 08:55:12;;;;;;;1.15;0.98;;;5.10;94.40;;;;;;4956105;28;20058;-90
2021/12/02 08:57:38;;;;;;;1.17;0.68;;;5.10;94.40;;;;;;4981004;28;21792;-89
2021/12/02 09:00:07;;;;;;;0.60;0.60;;;5.10;94.50;;;;;;4971688;28;20039;-91
2021/12/02 09:02:33;;;;;;;1.05;0.80;;;5.10;94.50;;;;;;4967851;28;20057;-90
2021/12/02 09:04:58;;;;;;;1.92;0.60;;;5.10;94.60;;;;;;4970849;28;20030;-90
2021/12/02 09:07:25;;;;;;;2.38;0.85;;;5.10;94.60;;;;;;4974835;28;20404;-90
2021/12/02 09:09:50;;;;;;;0.60;0.60;;;5.20;94.70;;;;;;4963020;28;20227;-90
2021/12/02 09:12:16;;;;;;;0.70;0.70;;;5.20;94.60;;;;;;4962050;28;20085;-90
2021/12/02 09:14:42;;;;;;;0.85;0.65;;;5.20;94.50;;;;;;4977067;28;20681;-91
2021/12/02 09:17:08;;;;;;;0.98;0.60;;;5.20;94.50;;;;;;4967398;28;20464;-90
2021/12/02 09:19:33;;;;;;;1.08;0.63;;;5.20;94.60;;;;;;4974790;28;20168;-88
2021/12/02 09:22:00;;;;;;;0.68;0.50;;;5.20;94.70;;;;;;4989335;28;20035;-91
2021/12/02 09:24:26;;;;;;;2.15;0.70;;;5.20;94.70;;;;;;4966804;28;20048;-91
2021/12/02 09:26:53;;;;;;;0.80;0.80;;;5.20;94.90;;;;;;4986982;28;20270;-90
2021/12/02 09:29:20;;;;;;;1.25;0.82;;;5.30;95.10;;;;;;4988113;28;20117;-87
2021/12/02 09:31:47;;;;;;;3.10;0.80;;;5.30;95.40;;;;;;4951457;28;21553;-90
2021/12/02 09:34:13;;;;;;;1.33;0.90;;;5.40;95.70;;;;;;4970601;28;20045;-89
2021/12/02 09:36:39;;;;;;;1.73;0.88;;;5.40;95.90;;;;;;4960784;28;20041;-90
2021/12/02 09:39:07;;;;;;;1.67;1.02;;;5.50;96.10;;;;;;4988888;28;20472;-91
2021/12/02 09:41:34;;;;;;;2.42;1.15;;;5.60;96.20;;;;;;4945818;28;20039;-91
2021/12/02 09:44:00;;;;;;;2.20;1.30;;;5.70;96.20;;;;;;4960949;28;20047;-87
2021/12/02 09:46:26;;;;;;;2.33;1.02;;;5.80;96.10;;;;;;4985265;28;20446;-89
2021/12/02 09:48:53;;;;;;;0.98;0.88;;;5.90;95.90;;;;;;4952803;28;20220;-88
2021/12/02 09:51:24;;;;;;;1.50;0.95;;;5.90;95.90;;;;;;4975708;28;20031;-89
2021/12/02 09:54:00;;;;;;;0.80;0.63;;;5.90;95.30;;;;;;4964172;28;20632;-90
2021/12/02 09:56:31;;;;;;;1.70;0.55;;;5.90;95.00;;;;;;4962992;28;20022;-89
2021/12/02 09:59:04;;;;;;;1.55;0.70;;;5.90;94.70;;;;;;4963118;28;20201;-89
2021/12/02 10:01:51;;;;;;;0.40;0.40;;;5.90;94.60;;;;;;4954053;28;20070;-90
2021/12/02 10:04:17;;;;;;;0.57;0.47;;;5.80;94.50;;;;;;4963227;28;20041;-88
2021/12/02 10:06:43;;;;;;;1.85;0.77;;;5.80;94.50;;;;;;4954230;28;20053;-91
2021/12/02 10:09:22;;;;;;;0.68;0.68;;;5.70;94.40;;;;;;4962203;28;20039;-90
2021/12/02 10:11:52;;;;;;;0.70;0.60;;;5.70;94.40;;;;;;4960931;28;20407;-89
2021/12/02 10:14:33;;;;;;;2.42;0.77;;;5.70;94.50;;;;;;4979805;28;20772;-90
2021/12/02 10:17:13;;;;;;;0.93;0.88;;;5.70;94.40;;;;;;4973946;28;20652;-88
2021/12/02 10:23:12;;;;;;;1.77;0.98;;;5.60;94.10;;;;;;4966047;28;20041;-90
2021/12/02 10:25:39;;;;;;;0.75;0.75;;;5.60;94.10;;;;;;4970562;28;20046;-88
2021/12/02 10:28:09;;;;;;;0.65;0.65;;;5.50;94.10;;;;;;4961037;28;20033;-91
2021/12/02 10:30:43;;;;;;;1.00;0.57;;;5.50;94.00;;;;;;4975818;28;20480;-90
2021/12/02 10:33:09;;;;;;;;;;;5.40;93.90;;;;;;4969461;28;20037;-89
2021/12/02 10:35:45;;;;;;;0.80;0.80;;;5.40;93.50;;;;;;4957482;28;19910;-89
2021/12/02 10:38:43;;;;;;;1.13;0.63;;;5.40;94.30;;;;;;4972940;28;20030;-89
2021/12/02 10:41:10;;;;;;;0.57;0.57;;;5.40;94.20;;;;;;4989386;28;20038;-90
2021/12/02 10:43:56;;;;;;;1.50;1.00;;;5.30;94.40;;;;;;4960561;28;20049;-90
2021/12/02 10:46:22;;;;;;;0.93;0.70;;;5.40;94.50;;;;;;4965659;28;20031;-90
2021/12/02 10:48:51;;;;;;;0.82;0.80;;;5.30;94.40;;;;;;4964182;28;20026;-90
2021/12/02 10:51:36;;;;;;;1.00;0.82;;;5.30;94.40;;;;;;4960720;28;20031;-90
2021/12/02 10:54:08;;;;;;;0.73;0.70;;;5.30;94.20;;;;;;4975438;28;20070;-90
2021/12/02 10:56:36;;;;;;;0.85;0.70;;;5.30;94.30;;;;;;4977873;28;20034;-91
2021/12/02 10:59:48;;;;;;;0.55;0.55;;;5.30;94.30;;;;;;4960697;28;20030;-90
2021/12/02 11:02:26;;;;;;;0.82;0.82;;;5.30;94.00;;;;;;4960113;28;20264;-90
2021/12/02 11:04:57;;;;;;;1.60;0.80;;;5.20;94.00;;;;;;4971243;28;20042;-90
2021/12/02 11:07:39;;;;;;;0.80;0.80;;;5.20;94.10;;;;;;4988637;28;20221;-90
2021/12/02 11:10:10;;;;;;;1.13;0.77;;;5.20;94.10;;;;;;4963601;28;20159;-90
2021/12/02 11:12:39;;;;;;;1.00;0.90;;;5.10;94.40;;;;;;4996243;28;20088;-90
2021/12/02 11:15:16;;;;;;;2.55;1.10;;;5.20;94.50;;;;;;4966507;28;20034;-90
2021/12/02 11:17:53;;;;;;;1.17;0.93;;;5.20;94.50;;;;;;4976603;28;20155;-91
2021/12/02 11:20:32;;;;;;;0.80;0.80;;;5.20;94.60;;;;;;4968073;28;20246;-90
2021/12/02 11:23:30;;;;;;;1.63;1.50;;;5.20;94.80;;;;;;4964518;28;20065;-91
2021/12/02 11:26:00;;;;;;;1.40;1.27;;;5.20;94.80;;;;;;4978030;28;20038;-91
2021/12/02 11:28:30;;;;;;;1.75;1.60;;;5.30;95.10;;;;;;4967811;28;20169;-91
2021/12/02 11:31:06;;;;;;;2.08;1.73;;;5.30;95.30;;;;;;4961152;28;20033;-91
2021/12/02 11:33:35;;;;;;;1.55;1.45;;;5.40;96.00;;;;;;4964452;28;20040;-91
2021/12/02 11:36:03;;;;;;;1.70;1.60;;;5.50;96.50;;;;;;4983667;28;20030;-91
2021/12/02 11:38:29;;;;;;;1.50;1.40;;;5.60;96.70;;;;;;4973769;28;20069;-91
2021/12/02 11:41:02;;;;;;;1.67;1.45;;;5.70;96.70;;;;;;4970332;28;20563;-91
2021/12/02 11:43:30;;;;;;;1.88;1.40;;;5.80;96.80;;;;;;4979577;28;20095;-91
2021/12/02 11:45:58;;;;;;;1.65;1.48;;;6.00;97.00;;;;;;4975645;28;20033;-92
2021/12/02 11:48:29;;;;;;;1.90;1.55;;;6.10;98.10;;;;;;4971161;28;20045;-92
2021/12/02 11:51:01;;;;;;;1.70;1.60;;;6.40;99.00;;;;;;4971450;28;20081;-92
2021/12/02 11:53:28;;;;;;;2.08;1.67;;;6.70;99.80;;;;;;4976974;28;20033;-91
2021/12/02 11:55:56;;;;;;;2.35;1.63;;;7.10;99.90;;;;;;4970795;28;20109;-90
2021/12/02 11:58:22;;;;;;;2.22;1.55;;;7.60;99.90;;;;;;4980085;28;20038;-92
2021/12/02 12:00:49;;;;;;;2.10;1.60;;;8.00;99.90;;;;;;4962171;28;20038;-91
2021/12/02 12:03:26;;;;;;;1.65;1.55;;;8.40;99.90;;;;;;4961012;28;20124;-91
2021/12/02 12:05:58;;;;;;;1.48;1.33;;;8.80;99.90;;;;;;4977122;28;20041;-91
2021/12/02 12:08:36;;;;;;;1.75;1.20;;;9.20;99.90;;;;;;4960509;28;20499;-91
2021/12/02 12:11:28;;;;;;;1.60;1.40;;;9.50;99.90;;;;;;4956951;28;20034;-92
2021/12/02 12:14:04;;;;;;;1.20;1.10;;;9.80;99.60;;;;;;4976538;28;20069;-88
2021/12/02 12:16:35;;;;;;;1.73;0.90;;;10.00;99.60;;;;;;4964431;28;20102;-91
2021/12/02 12:19:22;;;;;;;1.42;1.00;;;10.20;99.30;;;;;;4971807;28;20403;-88
2021/12/02 12:21:54;;;;;;;2.05;0.90;;;10.50;97.80;;;;;;4978975;28;20047;-89
2021/12/02 12:24:43;;;;;;;1.15;0.60;;;10.70;98.30;;;;;;4963161;28;20368;-89
2021/12/02 12:27:27;;;;;;;0.70;0.70;;;10.80;97.10;;;;;;4958386;28;20050;-90
2021/12/02 12:30:12;;;;;;;0.85;0.68;;;11.00;97.50;;;;;;4977097;28;20042;-90
2021/12/02 12:33:02;;;;;;;0.60;0.60;;;11.20;96.80;;;;;;4964265;28;20026;-90
2021/12/02 12:35:45;;;;;;;1.00;0.70;;;11.40;97.60;;;;;;4996065;28;20045;-89
2021/12/02 12:38:43;;;;;;;1.52;0.90;;;11.60;96.70;;;;;;4979046;28;20732;-89
2021/12/02 12:41:14;;;;;;;1.20;0.50;;;11.70;94.10;;;;;;4933761;28;20064;-90
2021/12/02 12:43:52;;;;;;;1.45;1.02;;;11.70;95.10;;;;;;4970156;28;20026;-87
2021/12/02 12:46:30;;;;;;;0.60;0.60;;;11.80;93.60;;;;;;4966413;28;20644;-88
2021/12/02 12:49:13;;;;;;;1.10;0.70;;;11.80;93.60;;;;;;4963959;28;20018;-89
2021/12/02 12:51:49;;;;;;;1.83;0.60;;;11.80;94.30;;;;;;4975767;28;20042;-89
2021/12/02 12:54:20;;;;;;;0.70;0.70;;;11.90;94.30;;;;;;4964524;28;20034;-89
2021/12/02 12:56:47;;;;;;;0.70;0.60;;;12.00;94.80;;;;;;4975460;28;20470;-90
2021/12/02 12:59:18;;;;;;;0.80;0.70;;;12.00;94.60;;;;;;4967742;28;20562;-89
2021/12/02 13:01:59;;;;;;;0.88;0.70;;;11.90;94.10;;;;;;4994303;28;20461;-90
2021/12/02 13:04:27;;;;;;;0.73;0.60;;;11.90;93.00;;;;;;4972607;28;20038;-90
2021/12/02 13:07:22;;;;;;;0.63;0.40;;;11.70;93.10;;;;;;4975246;28;20061;-91
2021/12/02 13:10:11;;;;;;;0.57;0.57;;;11.50;91.30;;;;;;4955833;28;20403;-91
2021/12/02 13:12:36;;;;;;;0.98;0.52;;;11.30;91.90;;;;;;4985028;28;20045;-91
2021/12/02 13:15:04;;;;;;;0.50;0.50;;;11.00;91.00;;;;;;4969540;28;20034;-89
2021/12/02 13:17:46;;;;;;;0.40;0.40;;;10.70;90.30;;;;;;4977303;28;20426;-90
2021/12/02 13:20:20;;;;;;;0.40;0.40;;;10.30;89.00;;;;;;4956715;28;20038;-91
2021/12/02 13:23:07;;;;;;;0.40;0.40;;;10.00;90.10;;;;;;4993639;28;20511;-91
2021/12/02 13:25:51;;;;;;;0.75;0.75;;;9.70;90.30;;;;;;4985274;28;20038;-91